Time,TemperatureF,DewpointF,PressureIn,WindDirection,WindDirectionDegrees,WindSpeedMPH,WindSpeedGustMPH,Humidity,HourlyPrecipIn,Conditions,Clouds,dailyrainin,SoftwareType,DateUTC
2013-06-19 00:01:00,72.0,66.0,-100.00,North,-999,-999.0,-999.0,80,0.00,,,-99.99,,2013-06-19 05:01:00,
2013-06-19 00:11:00,72.0,66.0,-100.00,North,-999,-999.0,-999.0,80,0.00,,,-99.99,,2013-06-19 05:11:00,
2013-06-19 00:22:00,72.0,66.0,-100.00,North,-999,-999.0,-999.0,80,0.00,,,-99.99,,2013-06-19 05:22:00,
2013-06-19 00:32:00,72.0,66.0,-100.00,North,-999,-999.0,-999.0,81,0.00,,,-99.99,,2013-06-19 05:32:00,
2013-06-19 00:42:00,72.0,67.0,-100.00,North,-999,-999.0,-999.0,82,0.00,,,-99.99,,2013-06-19 05:42:00,
2013-06-19 00:52:00,72.0,67.0,-100.00,North,-999,-999.0,-999.0,84,0.00,,,-99.99,,2013-06-19 05:52:00,
2013-06-19 01:02:00,72.0,67.0,-100.00,North,-999,-999.0,-999.0,84,0.00,,,-99.99,,2013-06-19 06:02:00,
2013-06-19 01:11:00,72.0,67.0,-100.00,North,-999,-999.0,-999.0,86,0.00,,,-99.99,,2013-06-19 06:11:00,
2013-06-19 01:22:00,71.0,67.0,-100.00,North,-999,-999.0,-999.0,88,0.00,,,-99.99,,2013-06-19 06:22:00,
2013-06-19 01:33:00,71.0,67.0,-100.00,North,-999,-999.0,-999.0,88,0.00,,,-99.99,,2013-06-19 06:33:00,
2013-06-19 01:42:00,71.0,69.0,-100.00,North,-999,-999.0,-999.0,92,0.00,,,-99.99,,2013-06-19 06:42:00,
2013-06-19 01:53:00,70.0,-99.9,-100.00,North,-999,-999.0,-999.0,-999,0.00,,,-99.99,,2013-06-19 06:53:00,
2013-06-19 02:02:00,70.0,-99.9,-100.00,North,-999,-999.0,-999.0,-999,0.00,,,-99.99,,2013-06-19 07:02:00,
2013-06-19 02:12:00,69.0,-99.9,-100.00,North,-999,-999.0,-999.0,-999,0.00,,,-99.99,,2013-06-19 07:12:00,
2013-06-19 02:23:00,69.0,-99.9,-100.00,North,-999,-999.0,-999.0,-999,0.00,,,-99.99,,2013-06-19 07:23:00,
2013-06-19 02:34:00,69.0,-99.9,-100.00,North,-999,-999.0,-999.0,-999,0.00,,,-99.99,,2013-06-19 07:34:00,
2013-06-19 02:44:00,69.0,-99.9,-100.00,North,-999,-999.0,-999.0,-999,0.00,,,-99.99,,2013-06-19 07:44:00,
2013-06-19 02:54:00,69.0,-99.9,-100.00,North,-999,-999.0,-999.0,-999,0.00,,,-99.99,,2013-06-19 07:54:00,
2013-06-19 03:02:00,69.0,-99.9,-100.00,North,-999,-999.0,-999.0,-999,0.00,,,-99.99,,2013-06-19 08:02:00,
2013-06-19 03:11:00,69.0,-99.9,-100.00,North,-999,-999.0,-999.0,-999,0.00,,,-99.99,,2013-06-19 08:11:00,
2013-06-19 03:22:00,68.0,-99.9,-100.00,North,-999,-999.0,-999.0,-999,0.00,,,-99.99,,2013-06-19 08:22:00,
2013-06-19 03:34:00,68.0,-99.9,-100.00,North,-999,-999.0,-999.0,-999,0.00,,,-99.99,,2013-06-19 08:34:00,
2013-06-19 03:43:00,68.0,-99.9,-100.00,North,-999,-999.0,-999.0,-999,0.00,,,-99.99,,2013-06-19 08:43:00,
2013-06-19 03:54:00,68.0,-99.9,-100.00,North,-999,-999.0,-999.0,-999,0.00,,,-99.99,,2013-06-19 08:54:00,
2013-06-19 04:02:00,68.0,-99.9,-100.00,North,-999,-999.0,-999.0,-999,0.00,,,-99.99,,2013-06-19 09:02:00,
2013-06-19 04:12:00,67.0,-99.9,-100.00,North,-999,-999.0,-999.0,-999,0.00,,,-99.99,,2013-06-19 09:12:00,
2013-06-19 04:22:00,68.0,-99.9,-100.00,North,-999,-999.0,-999.0,-999,0.00,,,-99.99,,2013-06-19 09:22:00,
2013-06-19 04:35:00,68.0,-99.9,-100.00,North,-999,-999.0,-999.0,-999,0.00,,,-99.99,,2013-06-19 09:35:00,
2013-06-19 04:44:00,68.0,-99.9,-100.00,North,-999,-999.0,-999.0,-999,0.00,,,-99.99,,2013-06-19 09:44:00,
2013-06-19 04:53:00,68.0,-99.9,-100.00,North,-999,-999.0,-999.0,-999,0.00,,,-99.99,,2013-06-19 09:53:00,
2013-06-19 05:02:00,68.0,-99.9,-100.00,North,-999,-999.0,-999.0,-999,0.00,,,-99.99,,2013-06-19 10:02:00,
2013-06-19 05:12:00,68.0,-99.9,-100.00,North,-999,-999.0,-999.0,-999,0.00,,,-99.99,,2013-06-19 10:12:00,
2013-06-19 05:23:00,68.0,-99.9,-100.00,North,-999,-999.0,-999.0,-999,0.00,,,-99.99,,2013-06-19 10:23:00,
2013-06-19 05:33:00,68.0,-99.9,-100.00,North,-999,-999.0,-999.0,-999,0.00,,,-99.99,,2013-06-19 10:33:00,
2013-06-19 05:43:00,68.0,-99.9,-100.00,North,-999,-999.0,-999.0,-999,0.00,,,-99.99,,2013-06-19 10:43:00,
2013-06-19 05:53:00,67.0,-99.9,-100.00,North,-999,-999.0,-999.0,-999,0.00,,,-99.99,,2013-06-19 10:53:00,
2013-06-19 06:02:00,67.0,-99.9,-100.00,North,-999,-999.0,-999.0,-999,0.00,,,-99.99,,2013-06-19 11:02:00,
2013-06-19 06:12:00,67.0,-99.9,-100.00,North,-999,-999.0,-999.0,-999,0.00,,,-99.99,,2013-06-19 11:12:00,
2013-06-19 06:22:00,67.0,-99.9,-100.00,North,-999,-999.0,-999.0,-999,0.00,,,-99.99,,2013-06-19 11:22:00,
2013-06-19 06:33:00,67.0,-99.9,-100.00,North,-999,-999.0,-999.0,-999,0.00,,,-99.99,,2013-06-19 11:33:00,
2013-06-19 06:43:00,67.0,-99.9,-100.00,North,-999,-999.0,-999.0,-999,0.00,,,-99.99,,2013-06-19 11:43:00,
2013-06-19 06:54:00,67.0,-99.9,-100.00,North,-999,-999.0,-999.0,-999,0.00,,,-99.99,,2013-06-19 11:54:00,
2013-06-19 07:02:00,67.0,-99.9,-100.00,North,-999,-999.0,-999.0,-999,0.00,,,-99.99,,2013-06-19 12:02:00,
2013-06-19 07:12:00,67.0,-99.9,-100.00,North,-999,-999.0,-999.0,-999,0.00,,,-99.99,,2013-06-19 12:12:00,
2013-06-19 07:22:00,68.0,-99.9,-100.00,North,-999,-999.0,-999.0,-999,0.00,,,-99.99,,2013-06-19 12:22:00,
2013-06-19 07:34:00,68.0,-99.9,-100.00,North,-999,-999.0,-999.0,-999,0.00,,,-99.99,,2013-06-19 12:34:00,
2013-06-19 07:44:00,68.0,-99.9,-100.00,North,-999,-999.0,-999.0,-999,0.00,,,-99.99,,2013-06-19 12:44:00,
2013-06-19 07:53:00,68.0,-99.9,-100.00,North,-999,-999.0,-999.0,-999,0.00,,,-99.99,,2013-06-19 12:53:00,
2013-06-19 08:03:00,69.0,-99.9,-100.00,North,-999,-999.0,-999.0,-999,0.00,,,-99.99,,2013-06-19 13:03:00,
2013-06-19 08:12:00,69.0,-99.9,-100.00,North,-999,-999.0,-999.0,-999,0.00,,,-99.99,,2013-06-19 13:12:00,
2013-06-19 08:22:00,69.0,-99.9,-100.00,North,-999,-999.0,-999.0,-999,0.00,,,-99.99,,2013-06-19 13:22:00,
2013-06-19 08:33:00,69.0,-99.9,-100.00,North,-999,-999.0,-999.0,-999,0.00,,,-99.99,,2013-06-19 13:33:00,
2013-06-19 08:43:00,70.0,-99.9,-100.00,North,-999,-999.0,-999.0,-999,0.00,,,-99.99,,2013-06-19 13:43:00,
2013-06-19 08:54:00,71.0,-99.9,-100.00,North,-999,-999.0,-999.0,-999,0.00,,,-99.99,,2013-06-19 13:54:00,
2013-06-19 09:02:00,71.0,-99.9,-100.00,North,-999,-999.0,-999.0,-999,0.00,,,-99.99,,2013-06-19 14:02:00,
2013-06-19 09:12:00,71.0,-99.9,-100.00,North,-999,-999.0,-999.0,-999,0.00,,,-99.99,,2013-06-19 14:12:00,
2013-06-19 09:23:00,71.0,-99.9,-100.00,North,-999,-999.0,-999.0,-999,0.00,,,-99.99,,2013-06-19 14:23:00,
2013-06-19 09:33:00,72.0,72.0,-100.00,North,-999,-999.0,-999.0,98,0.00,,,-99.99,,2013-06-19 14:33:00,
2013-06-19 09:43:00,73.0,71.0,-100.00,North,-999,-999.0,-999.0,94,0.00,,,-99.99,,2013-06-19 14:43:00,
2013-06-19 09:52:00,74.0,71.0,-100.00,North,-999,-999.0,-999.0,91,0.00,,,-99.99,,2013-06-19 14:52:00,
2013-06-19 10:01:00,74.0,71.0,-100.00,North,-999,-999.0,-999.0,91,0.00,,,-99.99,,2013-06-19 15:01:00,
2013-06-19 10:11:00,74.0,71.0,-100.00,North,-999,-999.0,-999.0,87,0.00,,,-99.99,,2013-06-19 15:11:00,
2013-06-19 10:22:00,75.0,70.0,-100.00,North,-999,-999.0,-999.0,84,0.00,,,-99.99,,2013-06-19 15:22:00,
2013-06-19 10:33:00,75.0,70.0,-100.00,North,-999,-999.0,-999.0,84,0.00,,,-99.99,,2013-06-19 15:33:00,
2013-06-19 10:42:00,76.0,70.0,-100.00,North,-999,-999.0,-999.0,81,0.00,,,-99.99,,2013-06-19 15:42:00,
2013-06-19 10:53:00,76.0,70.0,-100.00,North,-999,-999.0,-999.0,81,0.00,,,-99.99,,2013-06-19 15:53:00,
2013-06-19 11:01:00,76.0,70.0,-100.00,North,-999,-999.0,-999.0,81,0.00,,,-99.99,,2013-06-19 16:01:00,
2013-06-19 11:11:00,77.0,70.0,-100.00,North,-999,-999.0,-999.0,78,0.00,,,-99.99,,2013-06-19 16:11:00,
2013-06-19 11:22:00,78.0,69.0,-100.00,North,-999,-999.0,-999.0,74,0.00,,,-99.99,,2013-06-19 16:22:00,
2013-06-19 11:34:00,78.0,69.0,-100.00,North,-999,-999.0,-999.0,74,0.00,,,-99.99,,2013-06-19 16:34:00,
2013-06-19 11:43:00,78.0,69.0,-100.00,North,-999,-999.0,-999.0,72,0.00,,,-99.99,,2013-06-19 16:43:00,
2013-06-19 11:52:00,78.0,69.0,-100.00,North,-999,-999.0,-999.0,72,0.00,,,-99.99,,2013-06-19 16:52:00,
2013-06-19 12:02:00,80.0,67.0,-100.00,North,-999,-999.0,-999.0,64,0.00,,,-99.99,,2013-06-19 17:02:00,
2013-06-19 12:12:00,81.0,67.0,-100.00,North,-999,-999.0,-999.0,64,0.00,,,-99.99,,2013-06-19 17:12:00,
2013-06-19 12:22:00,81.0,67.0,-100.00,North,-999,-999.0,-999.0,64,0.00,,,-99.99,,2013-06-19 17:22:00,
2013-06-19 12:34:00,81.0,67.0,-100.00,North,-999,-999.0,-999.0,62,0.00,,,-99.99,,2013-06-19 17:34:00,
2013-06-19 12:43:00,80.0,67.0,-100.00,North,-999,-999.0,-999.0,63,0.00,,,-99.99,,2013-06-19 17:43:00,
2013-06-19 12:53:00,80.0,67.0,-100.00,North,-999,-999.0,-999.0,63,0.00,,,-99.99,,2013-06-19 17:53:00,
2013-06-19 13:02:00,82.0,67.0,-100.00,North,-999,-999.0,-999.0,60,0.00,,,-99.99,,2013-06-19 18:02:00,
2013-06-19 13:11:00,82.0,67.0,-100.00,North,-999,-999.0,-999.0,59,0.00,,,-99.99,,2013-06-19 18:11:00,
2013-06-19 13:24:00,83.0,65.0,-100.00,North,-999,-999.0,-999.0,55,0.00,,,-99.99,,2013-06-19 18:24:00,
2013-06-19 13:33:00,83.0,65.0,-100.00,North,-999,-999.0,-999.0,55,0.00,,,-99.99,,2013-06-19 18:33:00,
2013-06-19 13:44:00,82.0,65.0,-100.00,North,-999,-999.0,-999.0,54,0.00,,,-99.99,,2013-06-19 18:44:00,
2013-06-19 13:53:00,83.0,64.0,-100.00,North,-999,-999.0,-999.0,52,0.00,,,-99.99,,2013-06-19 18:53:00,
2013-06-19 14:01:00,83.0,62.0,-100.00,North,-999,-999.0,-999.0,49,0.00,,,-99.99,,2013-06-19 19:01:00,
2013-06-19 14:12:00,83.0,62.0,-100.00,North,-999,-999.0,-999.0,49,0.00,,,-99.99,,2013-06-19 19:12:00,
2013-06-19 14:22:00,83.0,63.0,-100.00,North,-999,-999.0,-999.0,51,0.00,,,-99.99,,2013-06-19 19:22:00,
2013-06-19 14:32:00,83.0,61.0,-100.00,North,-999,-999.0,-999.0,47,0.00,,,-99.99,,2013-06-19 19:32:00,
2013-06-19 14:43:00,84.0,60.0,-100.00,North,-999,-999.0,-999.0,45,0.00,,,-99.99,,2013-06-19 19:43:00,
2013-06-19 14:53:00,84.0,60.0,-100.00,North,-999,-999.0,-999.0,45,0.00,,,-99.99,,2013-06-19 19:53:00,
2013-06-19 15:02:00,84.0,61.0,-100.00,North,-999,-999.0,-999.0,45,0.00,,,-99.99,,2013-06-19 20:02:00,
2013-06-19 15:11:00,84.0,60.0,-100.00,North,-999,-999.0,-999.0,45,0.00,,,-99.99,,2013-06-19 20:11:00,
2013-06-19 15:22:00,84.0,60.0,-100.00,North,-999,-999.0,-999.0,45,0.00,,,-99.99,,2013-06-19 20:22:00,
2013-06-19 15:33:00,84.0,60.0,-100.00,North,-999,-999.0,-999.0,45,0.00,,,-99.99,,2013-06-19 20:33:00,
2013-06-19 15:42:00,83.0,61.0,-100.00,North,-999,-999.0,-999.0,46,0.00,,,-99.99,,2013-06-19 20:42:00,
2013-06-19 15:52:00,84.0,62.0,-100.00,North,-999,-999.0,-999.0,47,0.00,,,-99.99,,2013-06-19 20:52:00,
2013-06-19 16:02:00,84.0,62.0,-100.00,North,-999,-999.0,-999.0,47,0.00,,,-99.99,,2013-06-19 21:02:00,
2013-06-19 16:11:00,84.0,61.0,-100.00,North,-999,-999.0,-999.0,45,0.00,,,-99.99,,2013-06-19 21:11:00,
2013-06-19 16:22:00,84.0,62.0,-100.00,North,-999,-999.0,-999.0,47,0.00,,,-99.99,,2013-06-19 21:22:00,
2013-06-19 16:33:00,84.0,62.0,-100.00,North,-999,-999.0,-999.0,47,0.00,,,-99.99,,2013-06-19 21:33:00,
2013-06-19 16:44:00,84.0,62.0,-100.00,North,-999,-999.0,-999.0,47,0.00,,,-99.99,,2013-06-19 21:44:00,
2013-06-19 16:52:00,85.0,64.0,-100.00,North,-999,-999.0,-999.0,49,0.00,,,-99.99,,2013-06-19 21:52:00,
2013-06-19 17:01:00,84.0,63.0,-100.00,North,-999,-999.0,-999.0,50,0.00,,,-99.99,,2013-06-19 22:01:00,
2013-06-19 17:11:00,84.0,63.0,-100.00,North,-999,-999.0,-999.0,50,0.00,,,-99.99,,2013-06-19 22:11:00,
2013-06-19 17:22:00,84.0,63.0,-100.00,North,-999,-999.0,-999.0,49,0.00,,,-99.99,,2013-06-19 22:22:00,
2013-06-19 17:34:00,84.0,63.0,-100.00,North,-999,-999.0,-999.0,49,0.00,,,-99.99,,2013-06-19 22:34:00,
2013-06-19 17:43:00,84.0,64.0,-100.00,North,-999,-999.0,-999.0,51,0.00,,,-99.99,,2013-06-19 22:43:00,
2013-06-19 17:53:00,84.0,64.0,-100.00,North,-999,-999.0,-999.0,51,0.00,,,-99.99,,2013-06-19 22:53:00,
2013-06-19 18:02:00,83.0,65.0,-100.00,North,-999,-999.0,-999.0,54,0.00,,,-99.99,,2013-06-19 23:02:00,
2013-06-19 18:12:00,82.0,65.0,-100.00,North,-999,-999.0,-999.0,56,0.00,,,-99.99,,2013-06-19 23:12:00,
2013-06-19 18:23:00,82.0,65.0,-100.00,North,-999,-999.0,-999.0,56,0.00,,,-99.99,,2013-06-19 23:23:00,
2013-06-19 18:33:00,82.0,65.0,-100.00,North,-999,-999.0,-999.0,56,0.00,,,-99.99,,2013-06-19 23:33:00,
2013-06-19 18:43:00,82.0,66.0,-100.00,North,-999,-999.0,-999.0,57,0.00,,,-99.99,,2013-06-19 23:43:00,
2013-06-19 18:52:00,82.0,66.0,-100.00,North,-999,-999.0,-999.0,58,0.00,,,-99.99,,2013-06-19 23:52:00,
2013-06-19 19:01:00,82.0,66.0,-100.00,North,-999,-999.0,-999.0,58,0.00,,,-99.99,,2013-06-20 00:01:00,
2013-06-19 19:12:00,82.0,66.0,-100.00,North,-999,-999.0,-999.0,58,0.00,,,-99.99,,2013-06-20 00:12:00,
2013-06-19 19:22:00,82.0,66.0,-100.00,North,-999,-999.0,-999.0,57,0.00,,,-99.99,,2013-06-20 00:22:00,
2013-06-19 19:33:00,82.0,66.0,-100.00,North,-999,-999.0,-999.0,57,0.00,,,-99.99,,2013-06-20 00:33:00,
2013-06-19 19:44:00,82.0,66.0,-100.00,North,-999,-999.0,-999.0,58,0.00,,,-99.99,,2013-06-20 00:44:00,
2013-06-19 19:52:00,82.0,66.0,-100.00,North,-999,-999.0,-999.0,58,0.00,,,-99.99,,2013-06-20 00:52:00,
2013-06-19 20:02:00,81.0,66.0,-100.00,North,-999,-999.0,-999.0,59,0.00,,,-99.99,,2013-06-20 01:02:00,
2013-06-19 20:11:00,81.0,66.0,-100.00,North,-999,-999.0,-999.0,59,0.00,,,-99.99,,2013-06-20 01:11:00,
2013-06-19 20:22:00,81.0,66.0,-100.00,North,-999,-999.0,-999.0,60,0.00,,,-99.99,,2013-06-20 01:22:00,
2013-06-19 20:33:00,81.0,66.0,-100.00,North,-999,-999.0,-999.0,60,0.00,,,-99.99,,2013-06-20 01:33:00,
2013-06-19 20:44:00,80.0,66.0,-100.00,North,-999,-999.0,-999.0,62,0.00,,,-99.99,,2013-06-20 01:44:00,
2013-06-19 20:52:00,80.0,66.0,-100.00,North,-999,-999.0,-999.0,64,0.00,,,-99.99,,2013-06-20 01:52:00,
2013-06-19 21:02:00,79.0,67.0,-100.00,North,-999,-999.0,-999.0,66,0.00,,,-99.99,,2013-06-20 02:02:00,
2013-06-19 21:11:00,79.0,67.0,-100.00,North,-999,-999.0,-999.0,66,0.00,,,-99.99,,2013-06-20 02:11:00,
2013-06-19 21:24:00,78.0,67.0,-100.00,North,-999,-999.0,-999.0,68,0.00,,,-99.99,,2013-06-20 02:24:00,
2013-06-19 21:34:00,78.0,67.0,-100.00,North,-999,-999.0,-999.0,69,0.00,,,-99.99,,2013-06-20 02:34:00,
2013-06-19 21:43:00,77.0,67.0,-100.00,North,-999,-999.0,-999.0,70,0.00,,,-99.99,,2013-06-20 02:43:00,
2013-06-19 21:52:00,77.0,67.0,-100.00,North,-999,-999.0,-999.0,71,0.00,,,-99.99,,2013-06-20 02:52:00,
2013-06-19 22:02:00,77.0,67.0,-100.00,North,-999,-999.0,-999.0,71,0.00,,,-99.99,,2013-06-20 03:02:00,
2013-06-19 22:11:00,77.0,67.0,-100.00,North,-999,-999.0,-999.0,72,0.00,,,-99.99,,2013-06-20 03:11:00,
2013-06-19 22:22:00,77.0,67.0,-100.00,North,-999,-999.0,-999.0,72,0.00,,,-99.99,,2013-06-20 03:22:00,
2013-06-19 22:33:00,76.0,67.0,-100.00,North,-999,-999.0,-999.0,73,0.00,,,-99.99,,2013-06-20 03:33:00,
2013-06-19 22:43:00,76.0,68.0,-100.00,North,-999,-999.0,-999.0,75,0.00,,,-99.99,,2013-06-20 03:43:00,
2013-06-19 22:53:00,76.0,68.0,-100.00,North,-999,-999.0,-999.0,77,0.00,,,-99.99,,2013-06-20 03:53:00,
2013-06-19 23:02:00,76.0,68.0,-100.00,North,-999,-999.0,-999.0,77,0.00,,,-99.99,,2013-06-20 04:02:00,
2013-06-19 23:11:00,75.0,68.0,-100.00,North,-999,-999.0,-999.0,79,0.00,,,-99.99,,2013-06-20 04:11:00,
2013-06-19 23:22:00,75.0,69.0,-100.00,North,-999,-999.0,-999.0,81,0.00,,,-99.99,,2013-06-20 04:22:00,
2013-06-19 23:34:00,75.0,69.0,-100.00,North,-999,-999.0,-999.0,81,0.00,,,-99.99,,2013-06-20 04:34:00,
2013-06-19 23:43:00,74.0,69.0,-100.00,North,-999,-999.0,-999.0,82,0.00,,,-99.99,,2013-06-20 04:43:00,
2013-06-19 23:53:00,74.0,69.0,-100.00,North,-999,-999.0,-999.0,83,0.00,,,-99.99,,2013-06-20 04:53:00,